Time;durP1;ratioP1;P1;durP2;ratioP2;P2;SDS_P1;SDS_P2;PMS_P1;PMS_P2;Temp;Humidity;BMP_temperature;BMP_pressure;BME280_temperature;BME280_humidity;BME280_pressure;Samples;Min_cycle;Max_cycle;Signal;HPM_P1;HPM_P2
2023/09/13 00:02:12;;;;;;;26.15;23.52;;;22.40;99.90;;;;;;4993864;28;20038;-64
2023/09/13 00:04:37;;;;;;;25.58;22.80;;;22.40;99.90;;;;;;4992586;28;20049;-65
2023/09/13 00:07:03;;;;;;;25.90;23.30;;;22.40;99.90;;;;;;4993653;28;20022;-64
2023/09/13 00:09:29;;;;;;;26.65;23.40;;;22.30;99.90;;;;;;4993923;28;20034;-72
2023/09/13 00:11:54;;;;;;;27.00;24.02;;;22.30;99.90;;;;;;4993402;28;20022;-67
2023/09/13 00:14:20;;;;;;;25.88;23.08;;;22.30;99.90;;;;;;4993710;28;20030;-74
2023/09/13 00:16:46;;;;;;;25.55;22.65;;;22.30;99.90;;;;;;4993554;28;20023;-65
2023/09/13 00:19:11;;;;;;;25.38;22.88;;;22.30;99.90;;;;;;4993721;28;20101;-64
2023/09/13 00:21:40;;;;;;;25.98;23.02;;;22.20;99.90;;;;;;4993415;28;20475;-66
2023/09/13 00:24:07;;;;;;;28.10;22.35;;;22.20;99.90;;;;;;4993485;28;20388;-64
2023/09/13 00:26:33;;;;;;;27.05;23.70;;;22.20;99.90;;;;;;4993308;28;20046;-64
2023/09/13 00:28:59;;;;;;;26.08;23.27;;;22.20;99.90;;;;;;4993621;28;20077;-74
2023/09/13 00:31:25;;;;;;;29.42;23.90;;;22.20;99.90;;;;;;4996234;28;20023;-77
2023/09/13 00:33:50;;;;;;;25.17;22.45;;;22.20;99.90;;;;;;4997555;28;20022;-64
2023/09/13 00:36:16;;;;;;;26.95;23.35;;;22.20;99.90;;;;;;4997281;28;20041;-64
2023/09/13 00:38:42;;;;;;;27.67;22.55;;;22.20;99.90;;;;;;4997311;28;20019;-65
2023/09/13 00:41:07;;;;;;;25.90;23.25;;;22.20;99.90;;;;;;4997139;28;20034;-64
2023/09/13 00:43:33;;;;;;;27.10;24.20;;;22.20;99.90;;;;;;4997237;28;20023;-65
2023/09/13 00:45:59;;;;;;;31.17;24.58;;;22.10;99.90;;;;;;4997218;28;20030;-64
2023/09/13 00:48:25;;;;;;;27.83;24.83;;;22.20;99.90;;;;;;4997262;28;20014;-75
2023/09/13 00:50:51;;;;;;;27.10;24.20;;;22.10;99.90;;;;;;4997076;28;20121;-64
2023/09/13 00:53:18;;;;;;;26.42;23.58;;;22.10;99.90;;;;;;4996988;28;20030;-64
2023/09/13 00:55:47;;;;;;;28.58;23.55;;;22.10;99.90;;;;;;4996866;28;20435;-71
2023/09/13 00:58:12;;;;;;;27.10;23.95;;;22.10;99.90;;;;;;4997014;28;20361;-70
2023/09/13 01:00:39;;;;;;;25.55;22.77;;;22.00;99.90;;;;;;4996914;28;20085;-65
2023/09/13 01:03:06;;;;;;;26.88;23.38;;;22.00;99.90;;;;;;4996985;28;20065;-65
2023/09/13 01:05:34;;;;;;;25.63;23.02;;;22.00;99.90;;;;;;4996835;28;20069;-72
2023/09/13 01:08:01;;;;;;;28.48;23.30;;;22.00;99.90;;;;;;4996893;28;20046;-77
2023/09/13 01:10:26;;;;;;;26.60;23.48;;;22.00;99.90;;;;;;4996477;28;20049;-68
2023/09/13 01:12:52;;;;;;;28.52;23.98;;;22.00;99.90;;;;;;4996777;28;20126;-67
2023/09/13 01:15:18;;;;;;;28.85;23.02;;;22.00;99.90;;;;;;4996724;28;20054;-64
2023/09/13 01:18:08;;;;;;;26.25;23.27;;;21.90;99.90;;;;;;4996479;28;20026;-64
2023/09/13 01:21:05;;;;;;;31.00;23.05;;;22.00;99.90;;;;;;4996474;28;20054;-76
2023/09/13 01:23:34;;;;;;;27.77;23.08;;;21.90;99.90;;;;;;4996433;28;20101;-64
2023/09/13 01:26:26;;;;;;;25.02;22.40;;;21.90;99.90;;;;;;4996423;28;20388;-76
2023/09/13 01:28:54;;;;;;;25.98;22.85;;;21.90;99.90;;;;;;4996338;28;20380;-65
2023/09/13 01:31:21;;;;;;;29.20;23.17;;;21.90;99.90;;;;;;4996330;28;20360;-64
2023/09/13 01:33:48;;;;;;;29.80;23.67;;;21.80;99.90;;;;;;4996342;28;20463;-76
2023/09/13 01:36:14;;;;;;;27.83;22.23;;;21.80;99.90;;;;;;4996435;28;20033;-66
2023/09/13 01:38:40;;;;;;;25.77;22.60;;;21.80;99.90;;;;;;4995957;28;20054;-66
2023/09/13 01:41:25;;;;;;;26.70;22.20;;;21.80;99.90;;;;;;4995772;28;20030;-66
2023/09/13 01:43:54;;;;;;;32.35;24.02;;;21.90;99.90;;;;;;4996047;28;20080;-65
2023/09/13 01:46:27;;;;;;;32.08;23.38;;;21.70;99.90;;;;;;4996158;28;20383;-77
2023/09/13 01:48:57;;;;;;;28.05;23.73;;;21.80;99.90;;;;;;4996082;28;20484;-64
2023/09/13 01:51:25;;;;;;;24.05;20.67;;;21.70;99.90;;;;;;4995982;28;20035;-64
2023/09/13 01:53:50;;;;;;;28.27;22.75;;;21.70;99.90;;;;;;4995606;28;20074;-76
2023/09/13 01:56:21;;;;;;;30.45;24.38;;;21.70;99.90;;;;;;4995908;28;20030;-64
2023/09/13 01:58:48;;;;;;;37.78;25.75;;;21.80;99.90;;;;;;4995915;28;20027;-65
2023/09/13 02:01:13;;;;;;;37.53;27.38;;;21.80;99.90;;;;;;4995815;28;20027;-65
2023/09/13 02:03:39;;;;;;;37.60;28.50;;;21.70;99.90;;;;;;4995583;28;20028;-64
2023/09/13 02:06:04;;;;;;;39.47;29.77;;;21.70;99.90;;;;;;4995923;28;20109;-70
2023/09/13 02:08:30;;;;;;;41.13;29.60;;;21.70;99.90;;;;;;4995370;28;20026;-76
2023/09/13 02:10:55;;;;;;;39.00;29.10;;;21.70;99.90;;;;;;4995684;28;20025;-65
2023/09/13 02:13:21;;;;;;;42.40;29.30;;;21.70;99.90;;;;;;4995695;28;20310;-65
2023/09/13 02:15:47;;;;;;;39.95;29.25;;;21.70;99.90;;;;;;4995645;28;20030;-64
2023/09/13 02:18:12;;;;;;;41.33;31.40;;;21.70;99.90;;;;;;4995485;28;20022;-77
2023/09/13 02:20:38;;;;;;;42.63;31.88;;;21.70;99.90;;;;;;4995286;28;20046;-64
2023/09/13 02:23:03;;;;;;;39.65;32.30;;;21.70;99.90;;;;;;4994955;28;20472;-67
2023/09/13 02:25:29;;;;;;;43.20;33.22;;;21.70;99.90;;;;;;4995275;28;20064;-64
2023/09/13 02:27:54;;;;;;;40.75;33.35;;;21.70;99.90;;;;;;4995419;28;20018;-64
2023/09/13 02:30:21;;;;;;;42.50;34.15;;;21.70;99.90;;;;;;4995167;28;20057;-64
2023/09/13 02:32:47;;;;;;;42.40;33.97;;;21.60;99.90;;;;;;4995249;28;20022;-64
2023/09/13 02:35:14;;;;;;;47.92;35.38;;;21.60;99.90;;;;;;4994919;28;20027;-64
2023/09/13 02:37:40;;;;;;;42.95;34.70;;;21.70;99.90;;;;;;4994430;28;20022;-64
2023/09/13 02:40:06;;;;;;;46.80;35.92;;;21.70;99.90;;;;;;4994760;28;20081;-64
2023/09/13 02:42:32;;;;;;;44.80;34.85;;;21.70;99.90;;;;;;4995111;28;20054;-76
2023/09/13 02:44:58;;;;;;;45.75;36.60;;;21.70;99.90;;;;;;4995104;28;20052;-66
2023/09/13 02:47:23;;;;;;;47.80;36.83;;;21.70;99.90;;;;;;4995086;28;20403;-76
2023/09/13 02:49:49;;;;;;;48.03;37.72;;;21.70;99.90;;;;;;4994564;28;20056;-64
2023/09/13 02:52:16;;;;;;;51.08;35.80;;;21.60;99.90;;;;;;4994281;28;20030;-64
2023/09/13 02:54:44;;;;;;;49.85;39.28;;;21.70;99.90;;;;;;4994208;28;20472;-77
2023/09/13 02:57:09;;;;;;;51.33;38.38;;;21.60;99.90;;;;;;4994797;28;20109;-64
2023/09/13 02:59:35;;;;;;;49.58;39.72;;;21.60;99.90;;;;;;4993200;28;20117;-64
2023/09/13 03:02:00;;;;;;;49.25;38.25;;;21.60;99.90;;;;;;4994932;28;20384;-64
2023/09/13 03:04:26;;;;;;;50.97;39.58;;;21.60;99.90;;;;;;4994616;28;20058;-64
2023/09/13 03:06:52;;;;;;;54.58;40.88;;;21.60;99.90;;;;;;4994421;28;20463;-64
2023/09/13 03:09:17;;;;;;;51.75;39.03;;;21.50;99.90;;;;;;4994531;28;20034;-67
2023/09/13 03:11:43;;;;;;;50.22;38.03;;;21.50;99.90;;;;;;4994573;28;20072;-63
2023/09/13 03:14:08;;;;;;;47.40;36.33;;;21.60;99.90;;;;;;4994329;28;20400;-70
2023/09/13 03:16:34;;;;;;;45.25;35.47;;;21.50;99.90;;;;;;4994560;28;20029;-65
2023/09/13 03:19:00;;;;;;;45.70;36.90;;;21.50;99.90;;;;;;4994558;28;20376;-65
2023/09/13 03:21:27;;;;;;;46.15;36.28;;;21.50;99.90;;;;;;4994212;28;20042;-64
2023/09/13 03:23:54;;;;;;;41.95;34.15;;;21.50;99.90;;;;;;4994282;28;20050;-64
2023/09/13 03:26:24;;;;;;;41.85;34.35;;;21.50;99.90;;;;;;4994332;28;20030;-75
2023/09/13 03:28:51;;;;;;;44.15;33.40;;;21.50;99.90;;;;;;4994160;28;20022;-76
2023/09/13 03:31:19;;;;;;;40.20;33.13;;;21.50;99.90;;;;;;4994120;28;20391;-64
2023/09/13 03:33:46;;;;;;;42.42;34.40;;;21.40;99.90;;;;;;4994129;28;20022;-64
2023/09/13 03:36:14;;;;;;;41.97;31.90;;;21.40;99.90;;;;;;4993863;28;20023;-66
2023/09/13 03:38:42;;;;;;;40.33;31.58;;;21.50;99.90;;;;;;4994112;28;20109;-64
2023/09/13 03:41:08;;;;;;;38.10;30.98;;;21.40;99.90;;;;;;4994002;28;20027;-67
2023/09/13 03:43:34;;;;;;;35.65;30.77;;;21.40;99.90;;;;;;4994006;28;20026;-72
2023/09/13 03:46:00;;;;;;;38.83;30.80;;;21.40;99.90;;;;;;4994008;28;20033;-64
2023/09/13 03:48:28;;;;;;;37.30;30.92;;;21.30;99.90;;;;;;4994092;28;20023;-64
2023/09/13 03:50:54;;;;;;;37.67;31.73;;;21.30;99.90;;;;;;4993367;28;20034;-76
2023/09/13 03:53:19;;;;;;;35.03;29.70;;;21.30;99.90;;;;;;4993893;28;20025;-64
2023/09/13 03:55:45;;;;;;;36.90;29.42;;;21.30;99.90;;;;;;4993830;28;20474;-64
2023/09/13 03:58:10;;;;;;;37.47;29.42;;;21.30;99.90;;;;;;4993977;28;20031;-64
2023/09/13 04:00:36;;;;;;;37.88;30.63;;;21.30;99.90;;;;;;4993765;28;20026;-75
2023/09/13 04:03:03;;;;;;;33.22;29.70;;;21.30;99.90;;;;;;4993785;28;20388;-64
2023/09/13 04:05:29;;;;;;;33.00;29.40;;;21.20;99.90;;;;;;4993176;28;20035;-73
2023/09/13 04:07:55;;;;;;;33.20;28.25;;;21.20;99.90;;;;;;4993940;28;20034;-64
2023/09/13 04:10:21;;;;;;;32.65;29.20;;;21.20;99.90;;;;;;4993702;28;20027;-64
2023/09/13 04:12:46;;;;;;;33.08;28.27;;;21.20;99.90;;;;;;4993616;28;20109;-66
2023/09/13 04:15:12;;;;;;;34.45;28.13;;;21.20;99.90;;;;;;4993781;28;20472;-63
2023/09/13 04:17:37;;;;;;;31.75;27.55;;;21.20;99.90;;;;;;4993606;28;20029;-63
2023/09/13 04:20:04;;;;;;;31.38;27.98;;;21.20;99.90;;;;;;4993257;28;20069;-64
2023/09/13 04:22:30;;;;;;;31.48;27.38;;;21.20;99.90;;;;;;4993440;28;20084;-64
2023/09/13 04:24:56;;;;;;;33.65;27.67;;;21.10;99.90;;;;;;4993543;28;20038;-66
2023/09/13 04:27:23;;;;;;;31.98;27.05;;;21.20;99.90;;;;;;4993692;28;20472;-65
2023/09/13 04:29:49;;;;;;;30.90;27.58;;;21.10;99.90;;;;;;4993501;28;20034;-74
2023/09/13 04:32:14;;;;;;;33.13;27.20;;;21.10;99.90;;;;;;4993534;28;20073;-65
2023/09/13 04:34:40;;;;;;;29.92;26.50;;;21.10;99.90;;;;;;4993432;28;20057;-64
2023/09/13 04:37:06;;;;;;;28.30;25.33;;;21.10;99.90;;;;;;4993470;28;20097;-73
2023/09/13 04:39:32;;;;;;;29.88;24.90;;;21.10;99.90;;;;;;4993454;28;20030;-68
2023/09/13 04:41:59;;;;;;;29.85;25.85;;;21.10;99.90;;;;;;4993245;28;20101;-65
2023/09/13 04:44:26;;;;;;;33.90;27.20;;;21.10;99.90;;;;;;4993424;28;20042;-64
2023/09/13 04:46:56;;;;;;;31.30;26.65;;;21.00;99.90;;;;;;4993387;28;20015;-77
2023/09/13 04:49:21;;;;;;;31.67;25.67;;;21.00;99.90;;;;;;4993123;28;20072;-64
2023/09/13 04:51:47;;;;;;;29.80;26.13;;;21.00;99.90;;;;;;4993186;28;20027;-75
2023/09/13 04:54:12;;;;;;;30.45;24.70;;;21.00;99.90;;;;;;4993373;28;20503;-64
2023/09/13 04:56:38;;;;;;;28.90;24.98;;;21.00;99.90;;;;;;4993372;28;20030;-63
2023/09/13 04:59:04;;;;;;;31.02;25.92;;;21.00;99.90;;;;;;4993282;28;20398;-72
2023/09/13 05:01:30;;;;;;;30.45;25.83;;;21.00;99.90;;;;;;4993166;28;20035;-65
2023/09/13 05:03:57;;;;;;;31.15;25.85;;;21.00;99.90;;;;;;4993252;28;20042;-64
2023/09/13 05:06:23;;;;;;;31.33;26.52;;;21.00;99.90;;;;;;4991630;28;20500;-65
2023/09/13 05:08:53;;;;;;;27.77;24.88;;;21.00;99.90;;;;;;4993342;28;20029;-64
2023/09/13 05:11:19;;;;;;;26.08;23.13;;;21.00;99.90;;;;;;4992805;28;20458;-64
2023/09/13 05:13:47;;;;;;;28.48;24.30;;;21.00;99.90;;;;;;4993051;28;20026;-65
2023/09/13 05:16:19;;;;;;;28.67;24.83;;;21.10;99.90;;;;;;4993650;28;20027;-64
2023/09/13 05:18:46;;;;;;;26.48;22.90;;;21.10;99.90;;;;;;4996681;28;20023;-64
2023/09/13 05:21:12;;;;;;;26.33;23.52;;;21.10;99.90;;;;;;4996382;28;20038;-64
2023/09/13 05:23:38;;;;;;;25.60;22.60;;;21.20;99.90;;;;;;4996443;28;20101;-76
2023/09/13 05:26:04;;;;;;;27.38;22.83;;;21.20;99.90;;;;;;4994177;28;20110;-66
2023/09/13 05:28:33;;;;;;;32.75;25.02;;;21.20;99.90;;;;;;4989727;28;20109;-64
2023/09/13 05:31:02;;;;;;;27.73;24.73;;;21.20;99.90;;;;;;4992217;28;20034;-66
2023/09/13 05:33:29;;;;;;;31.08;24.48;;;21.20;99.90;;;;;;4990025;28;21475;-70
2023/09/13 05:35:55;;;;;;;25.50;22.85;;;21.20;99.90;;;;;;4995198;28;20059;-63
2023/09/13 05:38:21;;;;;;;26.92;22.60;;;21.20;99.90;;;;;;4988983;28;20023;-64
2023/09/13 05:40:47;;;;;;;31.90;23.25;;;21.20;99.90;;;;;;4994327;28;20026;-81
2023/09/13 05:43:12;;;;;;;25.70;20.75;;;21.10;99.90;;;;;;4993710;28;20110;-74
2023/09/13 05:45:39;;;;;;;29.40;23.88;;;21.20;99.90;;;;;;4998285;28;20038;-65
2023/09/13 05:48:05;;;;;;;29.95;26.65;;;21.20;99.90;;;;;;5000767;28;20049;-70
2023/09/13 05:50:31;;;;;;;31.50;27.77;;;21.20;99.90;;;;;;4995894;28;20125;-64
2023/09/13 05:52:57;;;;;;;32.47;26.70;;;21.10;99.90;;;;;;4993909;28;20030;-63
2023/09/13 05:55:22;;;;;;;32.42;26.75;;;21.10;99.90;;;;;;4993714;28;20041;-65
2023/09/13 05:57:50;;;;;;;38.40;26.42;;;21.10;99.90;;;;;;4990723;28;20492;-64
2023/09/13 06:00:16;;;;;;;28.33;25.13;;;21.10;99.90;;;;;;4983711;28;20026;-67
2023/09/13 06:02:42;;;;;;;32.22;25.80;;;21.10;99.90;;;;;;4993824;28;20467;-64
2023/09/13 06:05:11;;;;;;;29.88;23.42;;;21.10;99.90;;;;;;4994869;28;20492;-66
2023/09/13 06:07:37;;;;;;;32.30;24.70;;;21.10;99.90;;;;;;4994976;28;20026;-63
2023/09/13 06:10:04;;;;;;;29.30;24.27;;;21.10;99.90;;;;;;4995284;28;20026;-64
2023/09/13 06:12:30;;;;;;;32.20;22.05;;;21.10;99.90;;;;;;4994636;28;20038;-71
2023/09/13 06:14:57;;;;;;;24.70;21.42;;;21.10;99.90;;;;;;4994131;28;20093;-63
2023/09/13 06:17:23;;;;;;;28.55;21.35;;;21.10;99.90;;;;;;4994480;28;20026;-64
2023/09/13 06:19:50;;;;;;;26.70;22.90;;;21.10;99.90;;;;;;4991138;28;20065;-79
2023/09/13 06:22:17;;;;;;;23.40;20.90;;;21.10;99.90;;;;;;4992756;28;20077;-64
2023/09/13 06:24:42;;;;;;;27.95;22.55;;;21.10;99.90;;;;;;4993658;28;20483;-66
2023/09/13 06:27:08;;;;;;;24.40;20.77;;;21.10;99.90;;;;;;4995453;28;20022;-64
2023/09/13 06:29:38;;;;;;;27.52;20.05;;;21.10;99.90;;;;;;4991874;28;20393;-76
2023/09/13 06:32:04;;;;;;;23.30;18.65;;;21.20;99.90;;;;;;4989257;28;20026;-79
2023/09/13 06:34:29;;;;;;;26.27;19.67;;;21.20;99.90;;;;;;4987660;28;20101;-69
2023/09/13 06:36:55;;;;;;;24.58;19.35;;;21.20;99.90;;;;;;4990980;28;20570;-65
2023/09/13 06:39:21;;;;;;;24.20;18.27;;;21.20;99.90;;;;;;4992965;28;20427;-75
2023/09/13 06:41:47;;;;;;;26.05;17.55;;;21.20;99.90;;;;;;4995230;28;20443;-70
2023/09/13 06:44:13;;;;;;;18.42;16.23;;;21.20;99.90;;;;;;4994563;28;20085;-66
2023/09/13 06:46:41;;;;;;;23.58;16.45;;;21.20;99.90;;;;;;4991809;28;20027;-73
2023/09/13 06:49:06;;;;;;;19.95;16.45;;;21.30;99.90;;;;;;4992346;28;20022;-71
2023/09/13 06:51:40;;;;;;;24.35;18.88;;;21.30;99.90;;;;;;4994484;28;20058;-64
2023/09/13 06:54:06;;;;;;;19.20;16.92;;;21.30;99.90;;;;;;4972003;28;20027;-65
2023/09/13 06:56:31;;;;;;;20.88;16.52;;;21.30;99.90;;;;;;4972120;28;20115;-74
2023/09/13 06:58:57;;;;;;;19.67;15.60;;;21.30;99.90;;;;;;4973004;28;20077;-64
2023/09/13 07:01:22;;;;;;;23.95;16.75;;;21.40;99.90;;;;;;4975040;28;20109;-65
2023/09/13 07:03:48;;;;;;;20.33;16.65;;;21.40;99.90;;;;;;4974508;28;20093;-68
2023/09/13 07:06:14;;;;;;;22.55;17.73;;;21.30;99.90;;;;;;4973393;28;20027;-78
2023/09/13 07:08:40;;;;;;;23.17;15.93;;;21.30;99.90;;;;;;4973181;28;20430;-71
2023/09/13 07:11:05;;;;;;;24.08;16.63;;;21.30;99.90;;;;;;4974951;28;20436;-69
2023/09/13 07:13:31;;;;;;;21.50;15.68;;;21.30;99.90;;;;;;4973478;28;20603;-64
2023/09/13 07:15:57;;;;;;;20.33;15.63;;;21.40;99.90;;;;;;4973433;28;20029;-64
2023/09/13 07:18:24;;;;;;;21.23;15.27;;;21.30;99.90;;;;;;4974582;28;20023;-65
2023/09/13 07:20:49;;;;;;;21.05;14.68;;;21.40;99.90;;;;;;4974460;28;20046;-64
2023/09/13 07:23:15;;;;;;;16.33;11.55;;;21.30;99.90;;;;;;4973145;28;20039;-73
2023/09/13 07:25:40;;;;;;;19.35;12.90;;;21.40;99.90;;;;;;4972783;28;20388;-77
2023/09/13 07:28:06;;;;;;;21.92;14.43;;;21.30;99.90;;;;;;4974588;28;20029;-64
2023/09/13 07:30:32;;;;;;;14.75;10.85;;;21.30;99.90;;;;;;4973856;28;20380;-65
2023/09/13 07:32:57;;;;;;;16.10;11.13;;;21.30;99.90;;;;;;4972322;28;20101;-69
2023/09/13 07:35:23;;;;;;;14.07;10.15;;;21.30;99.90;;;;;;4974360;28;20484;-64
2023/09/13 07:37:49;;;;;;;16.95;9.65;;;21.40;99.90;;;;;;4974597;28;20034;-69
2023/09/13 07:40:14;;;;;;;14.63;8.85;;;21.40;99.90;;;;;;4973884;28;20102;-64
2023/09/13 07:42:40;;;;;;;19.10;7.57;;;21.40;99.90;;;;;;4971515;28;20030;-65
2023/09/13 07:45:07;;;;;;;17.48;7.93;;;21.40;99.90;;;;;;4974197;28;20042;-67
2023/09/13 07:47:33;;;;;;;17.92;6.78;;;21.40;99.90;;;;;;4974670;28;20089;-71
2023/09/13 07:49:59;;;;;;;15.35;5.93;;;21.40;99.90;;;;;;4974302;28;20027;-63
2023/09/13 07:52:25;;;;;;;13.77;6.22;;;21.40;99.90;;;;;;4978574;28;20043;-69
2023/09/13 07:54:51;;;;;;;16.30;5.18;;;21.40;99.90;;;;;;4973973;28;20039;-64
2023/09/13 07:57:17;;;;;;;16.80;5.63;;;21.40;99.90;;;;;;4973638;28;20070;-64
2023/09/13 07:59:43;;;;;;;13.02;5.25;;;21.40;99.90;;;;;;4972972;28;20026;-66
2023/09/13 08:02:09;;;;;;;14.13;4.60;;;21.40;99.90;;;;;;4971276;28;20050;-80
2023/09/13 08:04:34;;;;;;;15.07;4.32;;;21.40;99.90;;;;;;4971072;28;20100;-68
2023/09/13 08:07:00;;;;;;;17.05;3.38;;;21.40;99.90;;;;;;4971281;28;20109;-68
2023/09/13 08:09:26;;;;;;;12.30;3.38;;;21.40;99.90;;;;;;4966342;28;20039;-74
2023/09/13 08:11:52;;;;;;;12.10;2.72;;;21.50;99.90;;;;;;4966971;28;20026;-65
2023/09/13 08:14:18;;;;;;;14.20;3.00;;;21.50;99.90;;;;;;4969637;28;20035;-66
2023/09/13 08:16:45;;;;;;;11.60;3.28;;;21.50;99.90;;;;;;4967550;28;20019;-65
2023/09/13 08:19:11;;;;;;;9.98;2.92;;;21.50;99.90;;;;;;4969132;28;20093;-73
2023/09/13 08:21:37;;;;;;;12.73;3.03;;;21.60;99.90;;;;;;4971726;28;20030;-78
2023/09/13 08:24:04;;;;;;;13.68;2.53;;;21.60;99.90;;;;;;4972065;28;20042;-65
2023/09/13 08:26:30;;;;;;;9.63;2.53;;;21.60;99.90;;;;;;4973696;28;20038;-65
2023/09/13 08:28:57;;;;;;;8.48;2.13;;;21.60;99.90;;;;;;4971919;28;20022;-65
2023/09/13 08:31:25;;;;;;;6.93;1.08;;;21.60;99.90;;;;;;4970280;28;20046;-64
2023/09/13 08:33:55;;;;;;;5.70;1.52;;;21.50;99.90;;;;;;4969717;28;20046;-66
2023/09/13 08:36:21;;;;;;;5.97;1.60;;;21.60;99.90;;;;;;4966509;28;20118;-64
2023/09/13 08:38:47;;;;;;;4.60;1.75;;;21.50;99.90;;;;;;4970705;28;20094;-69
2023/09/13 08:41:15;;;;;;;9.20;1.50;;;21.50;99.90;;;;;;4974087;28;20469;-72
2023/09/13 08:43:42;;;;;;;5.60;1.50;;;21.50;99.90;;;;;;4973787;28;20376;-65
2023/09/13 08:46:10;;;;;;;6.22;1.38;;;21.50;99.90;;;;;;4972253;28;20030;-77
2023/09/13 08:48:37;;;;;;;4.85;1.83;;;21.50;99.90;;;;;;4973910;28;20027;-74
2023/09/13 08:51:03;;;;;;;6.20;1.85;;;21.40;99.90;;;;;;4973925;28;20090;-78
2023/09/13 08:53:31;;;;;;;5.38;1.73;;;21.40;99.90;;;;;;4976107;28;20034;-76
2023/09/13 08:55:58;;;;;;;3.90;1.42;;;21.40;99.90;;;;;;4975640;28;20037;-78
2023/09/13 08:58:25;;;;;;;3.63;1.58;;;21.30;99.90;;;;;;4976714;28;20068;-71
2023/09/13 09:00:53;;;;;;;5.78;1.88;;;21.30;99.90;;;;;;4977027;28;20110;-67
2023/09/13 09:03:22;;;;;;;4.63;1.48;;;21.40;99.90;;;;;;4976514;28;20440;-79
2023/09/13 09:05:49;;;;;;;4.25;1.50;;;21.30;99.90;;;;;;4977799;28;20488;-67
2023/09/13 09:08:17;;;;;;;5.22;1.20;;;21.30;99.90;;;;;;4976231;28;20023;-66
2023/09/13 09:10:44;;;;;;;4.85;1.63;;;21.30;99.90;;;;;;4975034;28;20049;-65
2023/09/13 09:13:10;;;;;;;8.25;1.70;;;21.40;99.90;;;;;;4976646;28;20098;-64
2023/09/13 09:15:39;;;;;;;4.35;1.63;;;21.40;99.90;;;;;;4976458;28;20027;-65
2023/09/13 09:18:09;;;;;;;4.53;1.95;;;21.40;99.90;;;;;;4970842;28;20058;-63
2023/09/13 09:20:38;;;;;;;4.13;1.13;;;21.40;99.90;;;;;;4975589;28;20392;-68
2023/09/13 09:23:06;;;;;;;4.55;1.42;;;21.40;99.90;;;;;;4974202;28;20015;-65
2023/09/13 09:25:32;;;;;;;6.05;1.45;;;21.40;99.90;;;;;;4975974;28;20062;-71
2023/09/13 09:27:57;;;;;;;6.63;1.67;;;21.40;99.90;;;;;;4976111;28;20102;-63
2023/09/13 09:30:31;;;;;;;5.63;1.92;;;21.40;99.90;;;;;;4976259;28;20030;-67
2023/09/13 09:33:03;;;;;;;4.65;1.80;;;21.50;99.90;;;;;;4976008;28;20089;-63
2023/09/13 09:35:29;;;;;;;4.57;1.43;;;21.40;99.90;;;;;;4975952;28;20030;-64
2023/09/13 09:37:54;;;;;;;3.95;1.70;;;21.40;99.90;;;;;;4975931;28;20027;-67
2023/09/13 09:40:20;;;;;;;4.47;2.03;;;21.30;99.90;;;;;;4975033;28;20034;-71
2023/09/13 09:42:53;;;;;;;3.22;1.55;;;21.40;99.90;;;;;;4967151;28;20350;-65
2023/09/13 09:45:20;;;;;;;5.20;1.88;;;21.50;99.90;;;;;;4974907;28;20035;-69
2023/09/13 09:47:46;;;;;;;3.50;1.67;;;21.40;99.90;;;;;;4973569;28;20027;-64
2023/09/13 09:50:13;;;;;;;5.10;2.05;;;21.50;99.90;;;;;;4974625;28;20475;-68
2023/09/13 09:52:39;;;;;;;5.13;2.03;;;21.50;99.90;;;;;;4975378;28;20046;-66
2023/09/13 09:55:05;;;;;;;3.58;1.50;;;21.50;99.90;;;;;;4972457;28;20506;-65
2023/09/13 09:57:31;;;;;;;4.47;1.77;;;21.60;99.90;;;;;;4975253;28;20097;-64
2023/09/13 09:59:59;;;;;;;4.63;1.13;;;21.60;99.90;;;;;;4974949;28;20432;-65
2023/09/13 10:02:31;;;;;;;8.75;1.65;;;21.60;99.90;;;;;;4969294;28;20552;-65
2023/09/13 10:04:59;;;;;;;;;;;21.70;99.90;;;;;;4968116;28;20077;-66
2023/09/13 10:07:25;;;;;;;2.45;0.82;;;21.70;99.90;;;;;;4974687;28;19917;-74
2023/09/13 10:09:50;;;;;;;2.92;0.90;;;21.70;99.90;;;;;;4972253;28;20027;-65
2023/09/13 10:12:17;;;;;;;2.58;0.90;;;21.70;99.90;;;;;;4973809;28;20027;-65
2023/09/13 10:14:45;;;;;;;2.70;0.50;;;21.70;99.90;;;;;;4971390;28;20089;-64
2023/09/13 10:17:12;;;;;;;3.30;0.60;;;21.70;99.90;;;;;;4972568;28;20530;-64
2023/09/13 10:19:38;;;;;;;1.95;0.80;;;21.70;99.90;;;;;;4971234;28;20398;-64
2023/09/13 10:22:04;;;;;;;3.10;0.90;;;21.80;99.90;;;;;;4974253;28;20419;-66
2023/09/13 10:24:39;;;;;;;1.35;0.90;;;21.80;99.90;;;;;;4973665;28;20039;-67
2023/09/13 10:27:12;;;;;;;2.10;0.70;;;21.80;99.90;;;;;;4973924;28;20548;-64
2023/09/13 10:29:45;;;;;;;2.72;0.57;;;21.80;99.90;;;;;;4970657;28;20030;-64
2023/09/13 10:32:16;;;;;;;1.42;0.43;;;21.80;99.70;;;;;;4988581;28;20091;-73
2023/09/13 10:34:56;;;;;;;3.33;0.73;;;21.80;99.90;;;;;;4976848;28;20035;-65
2023/09/13 10:37:31;;;;;;;3.35;0.60;;;21.90;99.40;;;;;;4975708;28;20019;-65
2023/09/13 10:40:17;;;;;;;1.50;0.65;;;21.90;99.10;;;;;;4973027;28;20121;-68
2023/09/13 10:42:43;;;;;;;2.75;0.80;;;21.90;99.30;;;;;;4977769;28;20037;-65
2023/09/13 10:45:14;;;;;;;1.33;0.50;;;21.90;98.40;;;;;;4975066;28;20051;-72
2023/09/13 10:47:40;;;;;;;2.28;0.50;;;21.90;98.90;;;;;;4974705;28;20023;-65
2023/09/13 10:50:07;;;;;;;0.93;0.47;;;21.90;98.60;;;;;;4974477;28;20035;-64
2023/09/13 10:52:34;;;;;;;1.65;0.50;;;21.90;98.30;;;;;;4974014;28;20027;-65
2023/09/13 10:55:05;;;;;;;2.35;0.52;;;21.90;98.60;;;;;;4975217;28;20027;-64
2023/09/13 10:57:32;;;;;;;3.38;0.60;;;21.90;98.80;;;;;;4974894;28;20069;-65
2023/09/13 10:59:59;;;;;;;1.20;0.35;;;22.00;98.90;;;;;;4976670;28;20109;-65
2023/09/13 11:02:26;;;;;;;1.33;0.52;;;22.00;98.60;;;;;;4986403;28;20019;-71
2023/09/13 11:04:51;;;;;;;3.58;1.23;;;21.90;98.60;;;;;;4978625;28;20057;-71
2023/09/13 11:07:17;;;;;;;5.53;0.55;;;22.00;98.50;;;;;;4978011;28;20102;-68
2023/09/13 11:09:45;;;;;;;2.03;0.73;;;22.00;98.50;;;;;;4974836;28;20113;-69
2023/09/13 11:12:12;;;;;;;3.45;0.70;;;22.00;98.50;;;;;;4974826;28;20030;-79
2023/09/13 11:14:42;;;;;;;2.47;0.65;;;22.10;97.90;;;;;;4973843;28;20037;-64
2023/09/13 11:17:39;;;;;;;1.70;0.43;;;22.00;97.70;;;;;;4970929;28;20038;-66
2023/09/13 11:20:24;;;;;;;1.20;0.38;;;22.10;98.10;;;;;;4967836;28;20049;-68
2023/09/13 11:23:05;;;;;;;2.38;0.43;;;22.10;98.90;;;;;;4973252;28;20023;-65
2023/09/13 11:25:49;;;;;;;2.60;0.47;;;22.10;98.70;;;;;;4971952;28;20041;-78
2023/09/13 11:28:38;;;;;;;1.83;0.55;;;22.10;98.20;;;;;;4981497;28;20030;-80
2023/09/13 11:31:07;;;;;;;2.55;0.57;;;22.10;98.70;;;;;;4968188;28;20077;-78
2023/09/13 11:33:56;;;;;;;2.05;0.68;;;22.20;99.00;;;;;;4966247;28;20053;-75
2023/09/13 11:36:24;;;;;;;2.10;0.52;;;22.20;97.40;;;;;;4970558;28;20031;-66
2023/09/13 11:38:51;;;;;;;2.78;0.70;;;22.10;97.40;;;;;;4970939;28;20031;-73
2023/09/13 11:41:17;;;;;;;3.15;0.93;;;22.20;98.30;;;;;;4973214;28;20018;-79
2023/09/13 11:43:43;;;;;;;1.50;0.82;;;22.20;98.30;;;;;;4971415;28;20034;-77
2023/09/13 11:46:10;;;;;;;1.85;0.45;;;22.20;98.10;;;;;;4967888;28;20034;-65
2023/09/13 11:48:40;;;;;;;1.50;0.50;;;22.20;97.90;;;;;;4967148;28;20468;-68
2023/09/13 11:51:14;;;;;;;1.65;0.30;;;22.30;97.50;;;;;;4966014;28;20030;-66
2023/09/13 11:53:41;;;;;;;2.15;0.50;;;22.30;97.30;;;;;;4963127;28;20078;-65
2023/09/13 11:56:27;;;;;;;2.05;0.40;;;22.20;97.20;;;;;;4968658;28;20217;-79
2023/09/13 11:58:57;;;;;;;3.38;0.38;;;22.30;96.40;;;;;;4973723;28;20367;-67
2023/09/13 12:01:24;;;;;;;1.23;0.40;;;22.30;96.60;;;;;;4970040;28;20033;-65
2023/09/13 12:03:51;;;;;;;3.28;0.60;;;22.30;96.70;;;;;;4968341;28;20073;-65
2023/09/13 12:06:18;;;;;;;1.02;0.40;;;22.30;96.90;;;;;;4969726;28;20039;-65
2023/09/13 12:08:47;;;;;;;2.03;0.35;;;22.30;96.70;;;;;;4968988;28;20094;-66
2023/09/13 12:11:13;;;;;;;3.05;0.65;;;22.30;96.50;;;;;;4966085;28;20027;-67
2023/09/13 12:13:44;;;;;;;1.85;0.35;;;22.30;96.60;;;;;;4964101;28;20443;-66
2023/09/13 12:16:11;;;;;;;3.03;0.40;;;22.30;96.00;;;;;;4968224;28;20085;-67
2023/09/13 12:18:37;;;;;;;2.20;0.40;;;22.30;96.00;;;;;;4965547;28;20275;-64
2023/09/13 12:21:06;;;;;;;2.28;0.77;;;22.40;96.20;;;;;;4953791;28;20035;-66
2023/09/13 12:23:43;;;;;;;2.03;0.30;;;22.40;95.60;;;;;;4953094;28;20114;-82
2023/09/13 12:26:11;;;;;;;1.70;0.35;;;22.40;96.10;;;;;;4957744;28;20082;-80
2023/09/13 12:28:41;;;;;;;2.15;0.68;;;22.40;95.50;;;;;;4956926;28;20015;-72
2023/09/13 12:31:12;;;;;;;1.35;0.32;;;22.40;95.80;;;;;;4939186;28;20476;-80
2023/09/13 12:33:40;;;;;;;1.35;0.50;;;22.40;96.20;;;;;;4959121;28;20020;-75
2023/09/13 12:36:07;;;;;;;2.10;0.65;;;22.40;95.70;;;;;;4956146;28;20023;-74